sensor_id;sensor_type;location;lat;lon;timestamp;P1;durP1;ratioP1;P2;durP2;ratioP2
48935;SDS011;34745;52.276;10.528;2022-10-31T00:00:59;14.93;;;6.00;;
48935;SDS011;34745;52.276;10.528;2022-10-31T00:03:26;14.80;;;6.37;;
48935;SDS011;34745;52.276;10.528;2022-10-31T00:05:53;14.23;;;6.13;;
48935;SDS011;34745;52.276;10.528;2022-10-31T00:08:20;17.50;;;6.57;;
48935;SDS011;34745;52.276;10.528;2022-10-31T00:10:47;17.00;;;7.40;;
48935;SDS011;34745;52.276;10.528;2022-10-31T00:13:14;16.10;;;6.57;;
48935;SDS011;34745;52.276;10.528;2022-10-31T00:15:43;9.13;;;6.07;;
48935;SDS011;34745;52.276;10.528;2022-10-31T00:18:10;14.00;;;6.17;;
48935;SDS011;34745;52.276;10.528;2022-10-31T00:20:38;9.93;;;5.50;;
48935;SDS011;34745;52.276;10.528;2022-10-31T00:23:05;21.87;;;6.30;;
48935;SDS011;34745;52.276;10.528;2022-10-31T00:25:33;18.93;;;6.87;;
48935;SDS011;34745;52.276;10.528;2022-10-31T00:28:02;13.37;;;6.63;;
48935;SDS011;34745;52.276;10.528;2022-10-31T00:30:29;13.80;;;6.13;;
48935;SDS011;34745;52.276;10.528;2022-10-31T00:32:58;17.03;;;5.73;;
48935;SDS011;34745;52.276;10.528;2022-10-31T00:35:25;13.50;;;6.13;;
48935;SDS011;34745;52.276;10.528;2022-10-31T00:37:52;18.13;;;6.07;;
48935;SDS011;34745;52.276;10.528;2022-10-31T00:40:19;17.13;;;6.07;;
48935;SDS011;34745;52.276;10.528;2022-10-31T00:42:46;11.80;;;6.00;;
48935;SDS011;34745;52.276;10.528;2022-10-31T00:45:13;14.53;;;6.10;;
48935;SDS011;34745;52.276;10.528;2022-10-31T00:47:40;16.70;;;6.20;;
48935;SDS011;34745;52.276;10.528;2022-10-31T00:50:09;15.87;;;6.00;;
48935;SDS011;34745;52.276;10.528;2022-10-31T00:52:36;12.13;;;5.57;;
48935;SDS011;34745;52.276;10.528;2022-10-31T00:55:03;13.10;;;5.63;;
48935;SDS011;34745;52.276;10.528;2022-10-31T00:57:30;12.73;;;6.13;;
48935;SDS011;34745;52.276;10.528;2022-10-31T00:59:57;12.77;;;5.90;;
48935;SDS011;34745;52.276;10.528;2022-10-31T01:02:24;13.57;;;6.23;;
48935;SDS011;34745;52.276;10.528;2022-10-31T01:04:51;17.47;;;6.60;;
48935;SDS011;34745;52.276;10.528;2022-10-31T01:07:20;17.53;;;5.90;;
48935;SDS011;34745;52.276;10.528;2022-10-31T01:09:47;11.03;;;6.40;;
48935;SDS011;34745;52.276;10.528;2022-10-31T01:12:14;21.43;;;6.30;;
48935;SDS011;34745;52.276;10.528;2022-10-31T01:14:42;15.17;;;6.30;;
48935;SDS011;34745;52.276;10.528;2022-10-31T01:17:11;11.20;;;6.17;;
48935;SDS011;34745;52.276;10.528;2022-10-31T01:19:38;12.53;;;5.90;;
48935;SDS011;34745;52.276;10.528;2022-10-31T01:22:05;16.80;;;5.90;;
48935;SDS011;34745;52.276;10.528;2022-10-31T01:24:34;13.90;;;6.67;;
48935;SDS011;34745;52.276;10.528;2022-10-31T01:27:01;14.90;;;6.37;;
48935;SDS011;34745;52.276;10.528;2022-10-31T01:29:28;12.33;;;6.00;;
48935;SDS011;34745;52.276;10.528;2022-10-31T01:31:55;16.17;;;6.73;;
48935;SDS011;34745;52.276;10.528;2022-10-31T01:34:22;17.80;;;6.37;;
48935;SDS011;34745;52.276;10.528;2022-10-31T01:36:49;14.80;;;7.17;;
48935;SDS011;34745;52.276;10.528;2022-10-31T01:39:17;13.77;;;6.40;;
48935;SDS011;34745;52.276;10.528;2022-10-31T01:41:51;11.60;;;6.47;;
48935;SDS011;34745;52.276;10.528;2022-10-31T01:47:20;22.17;;;6.20;;
48935;SDS011;34745;52.276;10.528;2022-10-31T01:49:54;10.60;;;6.33;;
48935;SDS011;34745;52.276;10.528;2022-10-31T01:52:24;13.27;;;6.17;;
48935;SDS011;34745;52.276;10.528;2022-10-31T01:54:55;14.83;;;6.53;;
48935;SDS011;34745;52.276;10.528;2022-10-31T01:57:26;13.13;;;6.73;;
48935;SDS011;34745;52.276;10.528;2022-10-31T01:59:56;15.27;;;6.80;;
48935;SDS011;34745;52.276;10.528;2022-10-31T02:02:26;10.37;;;6.10;;
48935;SDS011;34745;52.276;10.528;2022-10-31T02:04:56;15.00;;;7.10;;
48935;SDS011;34745;52.276;10.528;2022-10-31T02:07:26;14.23;;;6.53;;
48935;SDS011;34745;52.276;10.528;2022-10-31T02:09:57;12.00;;;6.43;;
48935;SDS011;34745;52.276;10.528;2022-10-31T02:12:27;12.63;;;7.00;;
48935;SDS011;34745;52.276;10.528;2022-10-31T02:14:56;15.70;;;6.47;;
48935;SDS011;34745;52.276;10.528;2022-10-31T02:17:24;14.50;;;6.43;;
48935;SDS011;34745;52.276;10.528;2022-10-31T02:19:52;12.03;;;6.67;;
48935;SDS011;34745;52.276;10.528;2022-10-31T02:22:24;20.43;;;6.70;;
48935;SDS011;34745;52.276;10.528;2022-10-31T02:25:09;17.70;;;6.37;;
48935;SDS011;34745;52.276;10.528;2022-10-31T02:27:59;14.03;;;6.43;;
48935;SDS011;34745;52.276;10.528;2022-10-31T02:30:39;16.10;;;6.53;;
48935;SDS011;34745;52.276;10.528;2022-10-31T02:33:17;14.10;;;6.30;;
48935;SDS011;34745;52.276;10.528;2022-10-31T02:35:51;13.93;;;6.23;;
48935;SDS011;34745;52.276;10.528;2022-10-31T02:38:25;16.20;;;6.73;;
48935;SDS011;34745;52.276;10.528;2022-10-31T02:41:04;13.40;;;6.33;;
48935;SDS011;34745;52.276;10.528;2022-10-31T02:43:38;17.20;;;6.70;;
48935;SDS011;34745;52.276;10.528;2022-10-31T02:46:11;10.37;;;6.13;;
48935;SDS011;34745;52.276;10.528;2022-10-31T02:48:45;15.27;;;6.63;;
48935;SDS011;34745;52.276;10.528;2022-10-31T02:51:14;15.80;;;6.77;;
48935;SDS011;34745;52.276;10.528;2022-10-31T02:53:42;16.77;;;6.87;;
48935;SDS011;34745;52.276;10.528;2022-10-31T02:56:11;15.97;;;7.30;;
48935;SDS011;34745;52.276;10.528;2022-10-31T02:58:40;21.40;;;6.90;;
48935;SDS011;34745;52.276;10.528;2022-10-31T03:01:14;23.27;;;7.57;;
48935;SDS011;34745;52.276;10.528;2022-10-31T03:06:52;19.73;;;7.57;;
48935;SDS011;34745;52.276;10.528;2022-10-31T03:09:25;17.67;;;7.90;;
48935;SDS011;34745;52.276;10.528;2022-10-31T03:12:01;24.37;;;8.70;;
48935;SDS011;34745;52.276;10.528;2022-10-31T03:14:36;20.37;;;9.70;;
48935;SDS011;34745;52.276;10.528;2022-10-31T03:17:07;24.83;;;9.43;;
48935;SDS011;34745;52.276;10.528;2022-10-31T03:19:41;18.60;;;9.67;;
48935;SDS011;34745;52.276;10.528;2022-10-31T03:22:15;20.43;;;10.27;;
48935;SDS011;34745;52.276;10.528;2022-10-31T03:24:45;20.63;;;10.17;;
48935;SDS011;34745;52.276;10.528;2022-10-31T03:27:18;20.83;;;11.27;;
48935;SDS011;34745;52.276;10.528;2022-10-31T03:29:48;24.27;;;12.00;;
48935;SDS011;34745;52.276;10.528;2022-10-31T03:32:18;29.23;;;13.00;;
48935;SDS011;34745;52.276;10.528;2022-10-31T03:34:48;24.33;;;12.03;;
48935;SDS011;34745;52.276;10.528;2022-10-31T03:37:20;26.37;;;13.40;;
48935;SDS011;34745;52.276;10.528;2022-10-31T03:39:51;28.30;;;14.30;;
48935;SDS011;34745;52.276;10.528;2022-10-31T03:42:23;32.67;;;15.33;;
48935;SDS011;34745;52.276;10.528;2022-10-31T03:46:28;30.37;;;14.63;;
48935;SDS011;34745;52.276;10.528;2022-10-31T03:48:55;30.23;;;13.73;;
48935;SDS011;34745;52.276;10.528;2022-10-31T03:51:25;26.47;;;13.43;;
48935;SDS011;34745;52.276;10.528;2022-10-31T03:54:00;26.10;;;12.63;;
48935;SDS011;34745;52.276;10.528;2022-10-31T03:56:32;27.13;;;13.57;;
48935;SDS011;34745;52.276;10.528;2022-10-31T03:59:01;25.63;;;13.50;;
48935;SDS011;34745;52.276;10.528;2022-10-31T04:01:32;27.07;;;13.97;;
48935;SDS011;34745;52.276;10.528;2022-10-31T04:04:05;33.40;;;14.63;;
48935;SDS011;34745;52.276;10.528;2022-10-31T04:06:34;28.30;;;14.67;;
48935;SDS011;34745;52.276;10.528;2022-10-31T04:09:04;28.53;;;14.07;;
48935;SDS011;34745;52.276;10.528;2022-10-31T04:11:33;31.23;;;15.13;;
48935;SDS011;34745;52.276;10.528;2022-10-31T04:14:07;29.77;;;14.57;;
48935;SDS011;34745;52.276;10.528;2022-10-31T04:16:35;31.33;;;15.17;;
48935;SDS011;34745;52.276;10.528;2022-10-31T04:19:02;31.13;;;16.03;;
48935;SDS011;34745;52.276;10.528;2022-10-31T04:21:30;29.93;;;15.33;;
48935;SDS011;34745;52.276;10.528;2022-10-31T04:23:57;29.77;;;16.40;;
48935;SDS011;34745;52.276;10.528;2022-10-31T04:26:26;31.57;;;16.70;;
48935;SDS011;34745;52.276;10.528;2022-10-31T04:28:52;32.50;;;15.80;;
48935;SDS011;34745;52.276;10.528;2022-10-31T04:31:20;31.07;;;16.77;;
48935;SDS011;34745;52.276;10.528;2022-10-31T04:33:47;33.03;;;16.87;;
48935;SDS011;34745;52.276;10.528;2022-10-31T04:36:14;29.10;;;17.17;;
48935;SDS011;34745;52.276;10.528;2022-10-31T04:38:41;34.30;;;17.13;;
48935;SDS011;34745;52.276;10.528;2022-10-31T04:41:08;37.93;;;16.77;;
48935;SDS011;34745;52.276;10.528;2022-10-31T04:43:36;34.33;;;17.83;;
48935;SDS011;34745;52.276;10.528;2022-10-31T04:46:04;38.20;;;18.17;;
48935;SDS011;34745;52.276;10.528;2022-10-31T04:48:31;30.57;;;17.20;;
48935;SDS011;34745;52.276;10.528;2022-10-31T04:50:59;32.07;;;17.20;;
48935;SDS011;34745;52.276;10.528;2022-10-31T04:53:26;33.70;;;17.63;;
48935;SDS011;34745;52.276;10.528;2022-10-31T04:55:54;35.83;;;17.43;;
48935;SDS011;34745;52.276;10.528;2022-10-31T04:58:21;32.83;;;17.53;;
48935;SDS011;34745;52.276;10.528;2022-10-31T05:00:52;42.17;;;18.90;;
48935;SDS011;34745;52.276;10.528;2022-10-31T05:03:19;38.23;;;18.47;;
48935;SDS011;34745;52.276;10.528;2022-10-31T05:05:46;37.53;;;18.80;;
48935;SDS011;34745;52.276;10.528;2022-10-31T05:08:14;37.73;;;19.00;;
48935;SDS011;34745;52.276;10.528;2022-10-31T05:10:41;36.13;;;19.80;;
48935;SDS011;34745;52.276;10.528;2022-10-31T05:13:08;34.20;;;19.60;;
48935;SDS011;34745;52.276;10.528;2022-10-31T05:15:36;49.20;;;20.40;;
48935;SDS011;34745;52.276;10.528;2022-10-31T05:18:04;40.93;;;21.10;;
48935;SDS011;34745;52.276;10.528;2022-10-31T05:20:31;41.13;;;21.57;;
48935;SDS011;34745;52.276;10.528;2022-10-31T05:22:59;45.17;;;21.67;;
48935;SDS011;34745;52.276;10.528;2022-10-31T05:25:27;46.00;;;22.10;;
48935;SDS011;34745;52.276;10.528;2022-10-31T05:27:55;43.40;;;21.97;;
48935;SDS011;34745;52.276;10.528;2022-10-31T05:30:25;42.00;;;21.00;;
48935;SDS011;34745;52.276;10.528;2022-10-31T05:32:53;37.57;;;20.87;;
48935;SDS011;34745;52.276;10.528;2022-10-31T05:35:23;50.53;;;20.93;;
48935;SDS011;34745;52.276;10.528;2022-10-31T05:37:51;42.20;;;21.97;;
48935;SDS011;34745;52.276;10.528;2022-10-31T05:40:19;42.80;;;21.37;;
48935;SDS011;34745;52.276;10.528;2022-10-31T05:42:47;47.13;;;22.87;;
48935;SDS011;34745;52.276;10.528;2022-10-31T05:45:17;39.30;;;21.57;;
48935;SDS011;34745;52.276;10.528;2022-10-31T05:47:49;36.60;;;22.33;;
48935;SDS011;34745;52.276;10.528;2022-10-31T05:50:17;44.33;;;21.37;;
48935;SDS011;34745;52.276;10.528;2022-10-31T05:52:45;41.20;;;20.73;;
48935;SDS011;34745;52.276;10.528;2022-10-31T05:55:13;44.97;;;22.07;;
48935;SDS011;34745;52.276;10.528;2022-10-31T05:57:40;36.30;;;21.27;;
48935;SDS011;34745;52.276;10.528;2022-10-31T06:00:08;38.67;;;21.87;;
48935;SDS011;34745;52.276;10.528;2022-10-31T06:02:35;37.67;;;21.83;;
48935;SDS011;34745;52.276;10.528;2022-10-31T06:05:02;45.00;;;21.47;;
48935;SDS011;34745;52.276;10.528;2022-10-31T06:07:31;40.97;;;22.63;;
48935;SDS011;34745;52.276;10.528;2022-10-31T06:10:02;41.67;;;23.17;;
48935;SDS011;34745;52.276;10.528;2022-10-31T06:12:31;45.90;;;23.57;;
48935;SDS011;34745;52.276;10.528;2022-10-31T06:14:58;42.57;;;23.63;;
48935;SDS011;34745;52.276;10.528;2022-10-31T06:17:25;51.57;;;24.43;;
48935;SDS011;34745;52.276;10.528;2022-10-31T06:19:52;54.97;;;25.10;;
48935;SDS011;34745;52.276;10.528;2022-10-31T06:22:19;52.63;;;24.43;;
48935;SDS011;34745;52.276;10.528;2022-10-31T06:24:46;51.30;;;25.03;;
48935;SDS011;34745;52.276;10.528;2022-10-31T06:27:14;44.93;;;23.37;;
48935;SDS011;34745;52.276;10.528;2022-10-31T06:29:42;43.10;;;24.73;;
48935;SDS011;34745;52.276;10.528;2022-10-31T06:32:09;48.67;;;25.13;;
48935;SDS011;34745;52.276;10.528;2022-10-31T06:34:38;50.47;;;24.57;;
48935;SDS011;34745;52.276;10.528;2022-10-31T06:37:05;45.60;;;24.90;;
48935;SDS011;34745;52.276;10.528;2022-10-31T06:39:33;39.27;;;23.90;;
48935;SDS011;34745;52.276;10.528;2022-10-31T06:42:00;43.73;;;24.07;;
48935;SDS011;34745;52.276;10.528;2022-10-31T06:44:29;54.87;;;25.23;;
48935;SDS011;34745;52.276;10.528;2022-10-31T06:46:56;51.07;;;24.77;;
48935;SDS011;34745;52.276;10.528;2022-10-31T06:49:24;45.10;;;24.93;;
48935;SDS011;34745;52.276;10.528;2022-10-31T06:51:50;57.87;;;26.07;;
48935;SDS011;34745;52.276;10.528;2022-10-31T06:54:18;52.00;;;23.73;;
48935;SDS011;34745;52.276;10.528;2022-10-31T06:56:45;48.27;;;24.47;;
48935;SDS011;34745;52.276;10.528;2022-10-31T06:59:13;42.03;;;23.23;;
48935;SDS011;34745;52.276;10.528;2022-10-31T07:01:42;37.73;;;23.07;;
48935;SDS011;34745;52.276;10.528;2022-10-31T07:04:10;53.40;;;25.93;;
48935;SDS011;34745;52.276;10.528;2022-10-31T07:06:37;46.13;;;23.60;;
48935;SDS011;34745;52.276;10.528;2022-10-31T07:09:04;49.63;;;23.97;;
48935;SDS011;34745;52.276;10.528;2022-10-31T07:11:31;46.37;;;23.63;;
48935;SDS011;34745;52.276;10.528;2022-10-31T07:13:59;47.97;;;24.17;;
48935;SDS011;34745;52.276;10.528;2022-10-31T07:16:26;40.83;;;22.80;;
48935;SDS011;34745;52.276;10.528;2022-10-31T07:18:54;41.83;;;22.27;;
48935;SDS011;34745;52.276;10.528;2022-10-31T07:21:21;42.23;;;23.07;;
48935;SDS011;34745;52.276;10.528;2022-10-31T07:23:48;48.07;;;22.17;;
48935;SDS011;34745;52.276;10.528;2022-10-31T07:26:15;43.67;;;22.07;;
48935;SDS011;34745;52.276;10.528;2022-10-31T07:28:43;39.03;;;22.53;;
48935;SDS011;34745;52.276;10.528;2022-10-31T07:31:11;41.63;;;21.40;;
48935;SDS011;34745;52.276;10.528;2022-10-31T07:33:38;45.13;;;22.87;;
48935;SDS011;34745;52.276;10.528;2022-10-31T07:36:07;42.07;;;24.03;;
48935;SDS011;34745;52.276;10.528;2022-10-31T07:38:34;46.13;;;23.63;;
48935;SDS011;34745;52.276;10.528;2022-10-31T07:41:01;46.63;;;23.97;;
48935;SDS011;34745;52.276;10.528;2022-10-31T07:43:28;41.37;;;21.97;;
48935;SDS011;34745;52.276;10.528;2022-10-31T07:45:55;41.00;;;22.87;;
48935;SDS011;34745;52.276;10.528;2022-10-31T07:48:22;43.43;;;21.70;;
48935;SDS011;34745;52.276;10.528;2022-10-31T07:50:49;45.53;;;23.50;;
48935;SDS011;34745;52.276;10.528;2022-10-31T07:53:18;50.03;;;23.23;;
48935;SDS011;34745;52.276;10.528;2022-10-31T07:55:45;43.83;;;24.23;;
48935;SDS011;34745;52.276;10.528;2022-10-31T07:58:12;47.67;;;24.17;;
48935;SDS011;34745;52.276;10.528;2022-10-31T08:00:41;41.40;;;23.10;;
48935;SDS011;34745;52.276;10.528;2022-10-31T08:03:10;45.63;;;23.57;;
48935;SDS011;34745;52.276;10.528;2022-10-31T08:05:38;47.87;;;25.80;;
48935;SDS011;34745;52.276;10.528;2022-10-31T08:08:07;49.97;;;23.80;;
48935;SDS011;34745;52.276;10.528;2022-10-31T08:10:36;40.67;;;23.57;;
48935;SDS011;34745;52.276;10.528;2022-10-31T08:13:04;48.77;;;24.47;;
48935;SDS011;34745;52.276;10.528;2022-10-31T08:15:33;47.33;;;24.60;;
48935;SDS011;34745;52.276;10.528;2022-10-31T08:18:03;49.70;;;24.03;;
48935;SDS011;34745;52.276;10.528;2022-10-31T08:20:31;40.63;;;23.97;;
48935;SDS011;34745;52.276;10.528;2022-10-31T08:22:59;44.13;;;23.10;;
48935;SDS011;34745;52.276;10.528;2022-10-31T08:25:28;41.27;;;22.80;;
48935;SDS011;34745;52.276;10.528;2022-10-31T08:28:04;48.43;;;23.40;;
48935;SDS011;34745;52.276;10.528;2022-10-31T08:30:32;40.67;;;22.10;;
48935;SDS011;34745;52.276;10.528;2022-10-31T08:33:01;45.10;;;22.60;;
48935;SDS011;34745;52.276;10.528;2022-10-31T08:35:29;41.40;;;22.87;;
48935;SDS011;34745;52.276;10.528;2022-10-31T08:37:57;54.43;;;23.97;;
48935;SDS011;34745;52.276;10.528;2022-10-31T08:40:26;41.03;;;22.67;;
48935;SDS011;34745;52.276;10.528;2022-10-31T08:42:58;41.50;;;23.37;;
48935;SDS011;34745;52.276;10.528;2022-10-31T08:45:27;43.87;;;24.27;;
48935;SDS011;34745;52.276;10.528;2022-10-31T08:47:58;46.73;;;23.67;;
48935;SDS011;34745;52.276;10.528;2022-10-31T08:50:27;42.90;;;23.60;;
48935;SDS011;34745;52.276;10.528;2022-10-31T08:52:59;52.47;;;25.50;;
48935;SDS011;34745;52.276;10.528;2022-10-31T08:55:32;50.67;;;25.07;;
48935;SDS011;34745;52.276;10.528;2022-10-31T08:58:00;48.63;;;26.47;;
48935;SDS011;34745;52.276;10.528;2022-10-31T09:00:29;53.67;;;26.70;;
48935;SDS011;34745;52.276;10.528;2022-10-31T09:02:56;54.57;;;28.97;;
48935;SDS011;34745;52.276;10.528;2022-10-31T09:05:23;63.60;;;30.60;;
48935;SDS011;34745;52.276;10.528;2022-10-31T09:07:50;65.43;;;30.83;;
48935;SDS011;34745;52.276;10.528;2022-10-31T09:10:21;61.33;;;30.47;;
48935;SDS011;34745;52.276;10.528;2022-10-31T09:12:53;61.30;;;31.20;;
48935;SDS011;34745;52.276;10.528;2022-10-31T09:15:21;60.13;;;31.00;;
48935;SDS011;34745;52.276;10.528;2022-10-31T09:17:49;66.47;;;31.40;;
48935;SDS011;34745;52.276;10.528;2022-10-31T09:20:17;65.13;;;32.00;;
48935;SDS011;34745;52.276;10.528;2022-10-31T09:22:44;73.60;;;37.23;;
48935;SDS011;34745;52.276;10.528;2022-10-31T09:25:11;64.83;;;32.57;;
48935;SDS011;34745;52.276;10.528;2022-10-31T09:27:39;68.00;;;33.57;;
48935;SDS011;34745;52.276;10.528;2022-10-31T09:30:06;60.60;;;33.17;;
48935;SDS011;34745;52.276;10.528;2022-10-31T09:32:34;66.53;;;32.63;;
48935;SDS011;34745;52.276;10.528;2022-10-31T09:35:03;71.53;;;33.33;;
48935;SDS011;34745;52.276;10.528;2022-10-31T09:37:30;63.80;;;33.90;;
48935;SDS011;34745;52.276;10.528;2022-10-31T09:39:57;65.90;;;32.97;;
48935;SDS011;34745;52.276;10.528;2022-10-31T09:42:28;60.73;;;32.23;;
48935;SDS011;34745;52.276;10.528;2022-10-31T09:45:11;68.50;;;33.17;;
48935;SDS011;34745;52.276;10.528;2022-10-31T09:47:46;67.77;;;32.43;;
48935;SDS011;34745;52.276;10.528;2022-10-31T09:50:29;70.83;;;37.60;;
48935;SDS011;34745;52.276;10.528;2022-10-31T09:53:03;67.87;;;37.23;;
48935;SDS011;34745;52.276;10.528;2022-10-31T09:55:39;76.00;;;34.93;;
48935;SDS011;34745;52.276;10.528;2022-10-31T09:58:08;67.80;;;33.00;;
48935;SDS011;34745;52.276;10.528;2022-10-31T10:00:43;61.30;;;31.20;;
48935;SDS011;34745;52.276;10.528;2022-10-31T10:03:10;57.90;;;32.20;;
48935;SDS011;34745;52.276;10.528;2022-10-31T10:05:49;66.03;;;32.30;;
48935;SDS011;34745;52.276;10.528;2022-10-31T10:08:23;58.17;;;30.33;;
48935;SDS011;34745;52.276;10.528;2022-10-31T10:10:54;60.37;;;30.70;;
48935;SDS011;34745;52.276;10.528;2022-10-31T10:13:31;55.03;;;31.23;;
48935;SDS011;34745;52.276;10.528;2022-10-31T10:16:10;53.30;;;29.10;;
48935;SDS011;34745;52.276;10.528;2022-10-31T10:18:45;57.93;;;32.47;;
48935;SDS011;34745;52.276;10.528;2022-10-31T10:21:25;52.23;;;30.23;;
48935;SDS011;34745;52.276;10.528;2022-10-31T10:24:02;58.17;;;29.13;;
48935;SDS011;34745;52.276;10.528;2022-10-31T10:26:37;50.63;;;28.70;;
48935;SDS011;34745;52.276;10.528;2022-10-31T10:29:10;50.08;;;28.33;;
48935;SDS011;34745;52.276;10.528;2022-10-31T10:31:49;57.38;;;30.00;;
48935;SDS011;34745;52.276;10.528;2022-10-31T10:34:20;53.55;;;28.65;;
48935;SDS011;34745;52.276;10.528;2022-10-31T10:36:54;59.22;;;29.88;;
48935;SDS011;34745;52.276;10.528;2022-10-31T10:39:25;52.55;;;28.60;;
48935;SDS011;34745;52.276;10.528;2022-10-31T10:41:57;58.05;;;29.33;;
48935;SDS011;34745;52.276;10.528;2022-10-31T10:44:45;61.42;;;30.20;;
48935;SDS011;34745;52.276;10.528;2022-10-31T10:47:35;56.42;;;29.92;;
48935;SDS011;34745;52.276;10.528;2022-10-31T10:50:09;53.72;;;30.23;;
48935;SDS011;34745;52.276;10.528;2022-10-31T10:52:43;58.22;;;31.38;;
48935;SDS011;34745;52.276;10.528;2022-10-31T10:55:17;67.10;;;33.25;;
48935;SDS011;34745;52.276;10.528;2022-10-31T10:57:54;52.00;;;30.60;;
48935;SDS011;34745;52.276;10.528;2022-10-31T11:00:24;53.38;;;28.40;;
48935;SDS011;34745;52.276;10.528;2022-10-31T11:02:53;42.78;;;26.42;;
48935;SDS011;34745;52.276;10.528;2022-10-31T11:05:23;53.42;;;25.65;;
48935;SDS011;34745;52.276;10.528;2022-10-31T11:07:55;47.95;;;24.17;;
48935;SDS011;34745;52.276;10.528;2022-10-31T11:10:22;41.88;;;21.77;;
48935;SDS011;34745;52.276;10.528;2022-10-31T11:13:14;39.03;;;22.88;;
48935;SDS011;34745;52.276;10.528;2022-10-31T11:15:53;42.60;;;21.63;;
48935;SDS011;34745;52.276;10.528;2022-10-31T11:18:24;37.08;;;18.98;;
48935;SDS011;34745;52.276;10.528;2022-10-31T11:20:53;30.33;;;16.25;;
48935;SDS011;34745;52.276;10.528;2022-10-31T11:23:24;28.88;;;16.25;;
48935;SDS011;34745;52.276;10.528;2022-10-31T11:25:54;28.77;;;15.13;;
48935;SDS011;34745;52.276;10.528;2022-10-31T11:28:22;29.65;;;15.35;;
48935;SDS011;34745;52.276;10.528;2022-10-31T11:30:51;27.35;;;15.00;;
48935;SDS011;34745;52.276;10.528;2022-10-31T11:33:22;31.63;;;15.30;;
48935;SDS011;34745;52.276;10.528;2022-10-31T11:35:53;31.65;;;14.40;;
48935;SDS011;34745;52.276;10.528;2022-10-31T11:38:26;28.48;;;14.40;;
48935;SDS011;34745;52.276;10.528;2022-10-31T11:41:03;26.35;;;15.60;;
48935;SDS011;34745;52.276;10.528;2022-10-31T11:43:36;29.73;;;16.23;;
48935;SDS011;34745;52.276;10.528;2022-10-31T11:46:08;30.52;;;15.95;;
48935;SDS011;34745;52.276;10.528;2022-10-31T11:48:36;30.38;;;15.68;;
48935;SDS011;34745;52.276;10.528;2022-10-31T11:51:03;29.38;;;16.48;;
48935;SDS011;34745;52.276;10.528;2022-10-31T11:53:33;37.25;;;16.88;;
48935;SDS011;34745;52.276;10.528;2022-10-31T11:56:01;31.25;;;15.52;;
48935;SDS011;34745;52.276;10.528;2022-10-31T11:58:31;30.02;;;14.65;;
48935;SDS011;34745;52.276;10.528;2022-10-31T12:00:58;31.85;;;15.90;;
48935;SDS011;34745;52.276;10.528;2022-10-31T12:03:37;31.92;;;15.85;;
48935;SDS011;34745;52.276;10.528;2022-10-31T12:06:16;36.15;;;16.15;;
48935;SDS011;34745;52.276;10.528;2022-10-31T12:08:48;34.45;;;15.98;;
48935;SDS011;34745;52.276;10.528;2022-10-31T12:11:20;27.45;;;15.65;;
48935;SDS011;34745;52.276;10.528;2022-10-31T12:14:14;34.67;;;15.30;;
48935;SDS011;34745;52.276;10.528;2022-10-31T12:16:54;34.90;;;15.70;;
48935;SDS011;34745;52.276;10.528;2022-10-31T12:19:27;27.90;;;15.65;;
48935;SDS011;34745;52.276;10.528;2022-10-31T12:22:04;29.15;;;15.90;;
48935;SDS011;34745;52.276;10.528;2022-10-31T12:24:53;30.98;;;14.65;;
48935;SDS011;34745;52.276;10.528;2022-10-31T12:27:34;30.88;;;15.38;;
48935;SDS011;34745;52.276;10.528;2022-10-31T12:30:13;36.15;;;16.05;;
48935;SDS011;34745;52.276;10.528;2022-10-31T12:32:55;30.00;;;14.57;;
48935;SDS011;34745;52.276;10.528;2022-10-31T12:35:42;29.85;;;14.60;;
48935;SDS011;34745;52.276;10.528;2022-10-31T12:38:29;30.80;;;15.52;;
48935;SDS011;34745;52.276;10.528;2022-10-31T12:41:20;29.45;;;14.82;;
48935;SDS011;34745;52.276;10.528;2022-10-31T12:43:57;38.13;;;16.27;;
48935;SDS011;34745;52.276;10.528;2022-10-31T12:46:37;27.95;;;13.88;;
48935;SDS011;34745;52.276;10.528;2022-10-31T12:49:28;28.08;;;14.38;;
48935;SDS011;34745;52.276;10.528;2022-10-31T12:52:13;28.90;;;13.82;;
48935;SDS011;34745;52.276;10.528;2022-10-31T12:55:03;26.13;;;13.70;;
48935;SDS011;34745;52.276;10.528;2022-10-31T12:57:39;26.27;;;12.48;;
48935;SDS011;34745;52.276;10.528;2022-10-31T13:00:12;25.38;;;12.70;;
48935;SDS011;34745;52.276;10.528;2022-10-31T13:02:43;23.38;;;11.32;;
48935;SDS011;34745;52.276;10.528;2022-10-31T13:05:17;26.13;;;14.77;;
48935;SDS011;34745;52.276;10.528;2022-10-31T13:07:49;19.00;;;9.70;;
48935;SDS011;34745;52.276;10.528;2022-10-31T13:10:21;17.40;;;7.30;;
48935;SDS011;34745;52.276;10.528;2022-10-31T13:12:54;13.32;;;6.05;;
48935;SDS011;34745;52.276;10.528;2022-10-31T13:15:28;10.50;;;4.43;;
48935;SDS011;34745;52.276;10.528;2022-10-31T13:17:59;6.20;;;3.63;;
48935;SDS011;34745;52.276;10.528;2022-10-31T13:20:30;7.43;;;3.85;;
48935;SDS011;34745;52.276;10.528;2022-10-31T13:23:04;10.52;;;4.00;;
48935;SDS011;34745;52.276;10.528;2022-10-31T13:26:06;10.25;;;4.30;;
48935;SDS011;34745;52.276;10.528;2022-10-31T13:28:38;8.65;;;4.57;;
48935;SDS011;34745;52.276;10.528;2022-10-31T13:31:11;10.02;;;5.07;;
48935;SDS011;34745;52.276;10.528;2022-10-31T13:33:39;9.35;;;5.20;;
48935;SDS011;34745;52.276;10.528;2022-10-31T13:36:16;10.35;;;5.57;;
48935;SDS011;34745;52.276;10.528;2022-10-31T13:38:51;9.13;;;5.63;;
48935;SDS011;34745;52.276;10.528;2022-10-31T13:41:39;11.52;;;5.45;;
48935;SDS011;34745;52.276;10.528;2022-10-31T13:44:14;19.75;;;10.75;;
48935;SDS011;34745;52.276;10.528;2022-10-31T13:46:45;14.02;;;7.70;;
48935;SDS011;34745;52.276;10.528;2022-10-31T13:49:35;15.82;;;7.78;;
48935;SDS011;34745;52.276;10.528;2022-10-31T13:52:13;13.38;;;6.28;;
48935;SDS011;34745;52.276;10.528;2022-10-31T13:54:43;11.55;;;6.70;;
48935;SDS011;34745;52.276;10.528;2022-10-31T13:57:18;13.43;;;6.78;;
48935;SDS011;34745;52.276;10.528;2022-10-31T13:59:50;13.82;;;6.93;;
48935;SDS011;34745;52.276;10.528;2022-10-31T14:02:22;15.02;;;7.72;;
48935;SDS011;34745;52.276;10.528;2022-10-31T14:04:55;16.75;;;8.18;;
48935;SDS011;34745;52.276;10.528;2022-10-31T14:07:25;16.10;;;8.07;;
48935;SDS011;34745;52.276;10.528;2022-10-31T14:09:55;14.30;;;8.30;;
48935;SDS011;34745;52.276;10.528;2022-10-31T14:12:26;16.38;;;8.40;;
48935;SDS011;34745;52.276;10.528;2022-10-31T14:14:58;14.77;;;8.27;;
48935;SDS011;34745;52.276;10.528;2022-10-31T14:17:30;23.67;;;8.38;;
48935;SDS011;34745;52.276;10.528;2022-10-31T14:22:52;16.33;;;8.57;;
48935;SDS011;34745;52.276;10.528;2022-10-31T14:25:26;15.65;;;7.95;;
48935;SDS011;34745;52.276;10.528;2022-10-31T14:27:58;18.15;;;9.10;;
48935;SDS011;34745;52.276;10.528;2022-10-31T14:30:28;19.08;;;11.02;;
48935;SDS011;34745;52.276;10.528;2022-10-31T14:32:57;19.92;;;10.57;;
48935;SDS011;34745;52.276;10.528;2022-10-31T14:35:34;18.65;;;10.65;;
48935;SDS011;34745;52.276;10.528;2022-10-31T14:38:19;19.77;;;8.68;;
48935;SDS011;34745;52.276;10.528;2022-10-31T14:46:53;23.48;;;10.55;;
48935;SDS011;34745;52.276;10.528;2022-10-31T14:49:32;20.40;;;10.65;;
48935;SDS011;34745;52.276;10.528;2022-10-31T14:52:08;23.58;;;10.55;;